Vanquish — PHCU — position and weather

sailwx.info

Track history (hours):
 
Tides and Currents Weather Stations Pressure Air Temp Water Temp Dewpoint Dewpoint Depression Visibility Wind Speed Wind Dir Waves Ship Positions

Vanquish

Last reported at 2017-Jun-23 13:30 UTC. Time now 2017-Jun-23 14:01 UTC.
Position N 53°38' W 000°12'.

MMSI: 246138952.

Date/timePositionNaut miles runAvg speedWind from/ knotsBaromVisibWave heightAir tempDewpointWater temp
2017-Jun-23 13:30N 53°38' W 000°12'0 0.0
2017-Jun-23 13:00N 53°38' W 000°12'0 0.0
2017-Jun-23 12:28N 53°38' W 000°12'0 0.0
2017-Jun-23 12:00N 53°38' W 000°12'0 0.0
2017-Jun-23 11:28N 53°38' W 000°12'0 0.4
2017-Jun-23 11:00N 53°38' W 000°11'0 0.4
2017-Jun-23 10:30N 53°38' W 000°11'0 0.3
2017-Jun-23 10:00N 53°38' W 000°11'1 2.6
2017-Jun-23 09:30N 53°38' W 000°09'59 8.3
2017-Jun-23 02:24N 53°02' E 001°09'512.6
2017-Jun-23 02:00N 53°00' E 001°17'713.7
2017-Jun-23 01:30N 52°58' E 001°27'815.7
2017-Jun-23 01:00N 52°54' E 001°39'815.7
2017-Jun-23 00:31N 52°49' E 001°49'7976.9
2017-Jun-22 23:29N 52°07' E 003°37'0 0.0
2017-Jun-22 23:00N 52°07' E 003°37'0 0.0
2017-Jun-22 22:30N 52°07' E 003°37'0 0.0
2017-Jun-22 22:00N 52°07' E 003°37'0 0.0
2017-Jun-22 21:30N 52°07' E 003°37'0 0.0
2017-Jun-22 21:00N 52°07' E 003°37'0 0.0
2017-Jun-22 20:30N 52°07' E 003°37'0 0.0
2017-Jun-22 20:00N 52°07' E 003°37'0 0.0
2017-Jun-22 19:30N 52°07' E 003°37'0 0.0
2017-Jun-22 19:00N 52°07' E 003°37'611.0
2017-Jun-22 18:30N 52°05' E 003°46'713.6
2017-Jun-22 18:00N 52°03' E 003°56'713.5
2017-Jun-22 17:30N 51°59' E 004°05'714.1
2017-Jun-22 17:00N 51°55' E 004°14'611.1
2017-Jun-22 16:30N 51°51' E 004°21'5 9.8
2017-Jun-22 16:00N 51°50' E 004°29'5 9.2
2017-Jun-22 15:31N 51°48' E 004°36'5 9.1
2017-Jun-22 15:01N 51°44' E 004°38'3 6.7
2017-Jun-22 14:30N 51°41' E 004°36'0 0.0
2017-Jun-22 13:26N 51°41' E 004°36'0 0.0
2017-Jun-22 13:00N 51°41' E 004°36'0 0.0
2017-Jun-22 12:30N 51°41' E 004°36'0 0.0
2017-Jun-22 12:00N 51°41' E 004°36'0 0.0
2017-Jun-22 11:30N 51°41' E 004°36'0 0.0
2017-Jun-22 11:00N 51°41' E 004°36'0 0.0
2017-Jun-22 10:29N 51°41' E 004°36'0 0.0
2017-Jun-22 10:00N 51°41' E 004°36'0 0.0
2017-Jun-22 09:30N 51°41' E 004°36'0 0.0
2017-Jun-22 09:00N 51°41' E 004°36'0 0.0
2017-Jun-22 08:30N 51°41' E 004°36'0 0.0
2017-Jun-22 08:00N 51°41' E 004°36'0 0.0
2017-Jun-22 07:30N 51°41' E 004°36'0 0.0
2017-Jun-22 07:01N 51°41' E 004°36'0 0.0
2017-Jun-22 06:30N 51°41' E 004°36'2 3.9
2017-Jun-22 06:00N 51°43' E 004°37'5 9.9
2017-Jun-22 05:30N 51°48' E 004°37'4 8.3
2017-Jun-22 05:00N 51°50' E 004°32'510.9
2017-Jun-22 04:31N 51°51' E 004°23'5 9.3
2017-Jun-22 04:01N 51°54' E 004°18'612.3
2017-Jun-22 03:31N 51°57' E 004°10'613.0
2017-Jun-22 03:01N 52°00' E 003°60'713.6
2017-Jun-22 02:30N 52°02' E 003°49'612.4
2017-Jun-22 02:00N 52°04' E 003°40'1017.8
2017-Jun-22 01:27N 52°09' E 003°26'2 4.8
2017-Jun-22 01:00N 52°10' E 003°23'612.2
2017-Jun-22 00:30N 52°13' E 003°15'712.4
2017-Jun-21 23:58N 52°17' E 003°06'1213.3
2017-Jun-21 23:06N 52°22' E 002°49'113.6
2017-Jun-21 23:00N 52°23' E 002°47'1213.1
2017-Jun-21 22:06N 52°31' E 002°33'513.5
2017-Jun-21 21:43N 52°34' E 002°26'313.6
2017-Jun-21 21:30N 52°35' E 002°22'713.6
2017-Jun-21 21:00N 52°39' E 002°12'713.7
2017-Jun-21 20:30N 52°43' E 002°03'714.6
2017-Jun-21 20:00N 52°47' E 001°53'815.3
2017-Jun-21 19:30N 52°50' E 001°42'815.4
2017-Jun-21 19:00N 52°54' E 001°30'815.5
2017-Jun-21 18:30N 52°58' E 001°19'6613.7
2017-Jun-21 13:42N 53°38' W 000°09'1 6.1
2017-Jun-21 13:30N 53°38' W 000°11'1 1.0
2017-Jun-21 12:50N 53°38' W 000°12'0 0.0
2017-Jun-21 12:27N 53°38' W 000°12'0 0.0
2017-Jun-21 10:53N 53°38' W 000°12'0 0.0
2017-Jun-21 10:30N 53°38' W 000°12'0 0.0
2017-Jun-21 09:57N 53°38' W 000°12'0 0.0
2017-Jun-21 09:30N 53°38' W 000°12'0 0.0
2017-Jun-21 08:54N 53°38' W 000°12'0 0.0
2017-Jun-21 08:27N 53°38' W 000°12'0 0.0
2017-Jun-21 07:57N 53°38' W 000°12'0 0.0
2017-Jun-21 07:22N 53°38' W 000°12'0 0.0
2017-Jun-21 07:00N 53°38' W 000°12'0 0.0
2017-Jun-21 06:29N 53°38' W 000°12'0 0.0
2017-Jun-21 06:00N 53°38' W 000°12'0 0.3
2017-Jun-21 05:30N 53°38' W 000°11'0 0.8
2017-Jun-21 05:00N 53°38' W 000°11'3 5.6
2017-Jun-21 04:30N 53°37' W 000°06'610.8
2017-Jun-21 03:55N 53°35' E 000°04'17 9.1
2017-Jun-21 02:04N 53°26' E 000°28'111.8
2017-Jun-21 02:00N 53°25' E 000°28'3313.9
2017-Jun-20 23:37N 53°02' E 001°08'216.1
2017-Jun-20 23:31N 53°01' E 001°11'816.4
2017-Jun-20 23:01N 52°59' E 001°23'816.8
2017-Jun-20 22:30N 52°55' E 001°36'916.9
2017-Jun-20 22:00N 52°50' E 001°48'816.3
2017-Jun-20 21:30N 52°46' E 001°59'915.7
2017-Jun-20 20:55N 52°41' E 002°12'814.8
2017-Jun-20 20:24N 52°37' E 002°22'614.4
2017-Jun-20 19:59N 52°33' E 002°31'714.2
2017-Jun-20 19:28N 52°29' E 002°41'714.1
2017-Jun-20 18:56N 52°25' E 002°51'714.0
2017-Jun-20 18:24N 52°21' E 003°01'614.2
2017-Jun-20 18:00N 52°18' E 003°09'1223.7
2017-Jun-20 17:30N 52°11' E 003°25'2 5.0
2017-Jun-20 17:00N 52°10' E 003°28'713.8
2017-Jun-20 16:30N 52°06' E 003°38'715.0
2017-Jun-20 16:00N 52°04' E 003°50'714.8
2017-Jun-20 15:30N 52°01' E 004°00'714.7
2017-Jun-20 15:00N 51°57' E 004°11'1211.8
2017-Jun-20 14:00N 51°50' E 004°26'5 9.9
2017-Jun-20 13:30N 51°49' E 004°34'4 7.4
2017-Jun-20 13:00N 51°46' E 004°38'4 8.4
2017-Jun-20 12:30N 51°42' E 004°36'1 2.0
2017-Jun-20 12:00N 51°41' E 004°36'0 0.0
2017-Jun-20 11:30N 51°41' E 004°36'0 0.0
2017-Jun-20 11:00N 51°41' E 004°36'0 0.0
2017-Jun-20 10:30N 51°41' E 004°36'0 0.0
2017-Jun-20 10:00N 51°41' E 004°36'0 0.0
2017-Jun-20 09:30N 51°41' E 004°36'0 0.0
2017-Jun-20 09:00N 51°41' E 004°36'0 0.0
2017-Jun-20 08:30N 51°41' E 004°36'0 0.0
2017-Jun-20 08:00N 51°41' E 004°36'0 0.0
2017-Jun-20 07:30N 51°41' E 004°36'0 0.0
2017-Jun-20 07:00N 51°41' E 004°36'0 0.0
2017-Jun-20 06:30N 51°41' E 004°36'0 0.0
2017-Jun-20 06:00N 51°41' E 004°36'0 0.0
2017-Jun-20 05:30N 51°41' E 004°36'0 0.0
2017-Jun-20 05:00N 51°41' E 004°36'0 0.0
2017-Jun-20 04:30N 51°41' E 004°36'0 0.0
2017-Jun-20 04:00N 51°41' E 004°36'0 0.0
2017-Jun-20 03:30N 51°41' E 004°36'0 0.0
2017-Jun-20 03:00N 51°41' E 004°36'0 0.0
2017-Jun-20 02:30N 51°41' E 004°36'0 0.0
2017-Jun-20 02:00N 51°41' E 004°36'0 0.0
2017-Jun-20 01:30N 51°41' E 004°36'0 0.0
2017-Jun-20 01:00N 51°41' E 004°36'0 0.0
2017-Jun-20 00:30N 51°41' E 004°36'0 0.0
2017-Jun-20 00:00N 51°41' E 004°36'0 0.0
2017-Jun-19 23:30N 51°41' E 004°36'0 0.0
2017-Jun-19 23:00N 51°41' E 004°36'0 0.0
2017-Jun-19 22:30N 51°41' E 004°36'0 0.0
2017-Jun-19 22:00N 51°41' E 004°36'0 0.0
2017-Jun-19 21:30N 51°41' E 004°36'0 0.2
2017-Jun-19 21:00N 51°41' E 004°36'0 0.0
2017-Jun-19 20:30N 51°41' E 004°36'0 0.0
2017-Jun-19 20:00N 51°41' E 004°36'0 0.0
2017-Jun-19 19:30N 51°41' E 004°36'3 5.1
2017-Jun-19 19:00N 51°43' E 004°37'5 9.9
2017-Jun-19 18:31N 51°48' E 004°37'5 9.3
2017-Jun-19 18:00N 51°50' E 004°30'510.6
2017-Jun-19 17:30N 51°51' E 004°22'4 8.6
2017-Jun-19 17:01N 51°54' E 004°17'612.2
2017-Jun-19 16:30N 51°58' E 004°09'713.7
2017-Jun-19 16:01N 52°00' E 003°59'713.3
2017-Jun-19 15:31N 52°01' E 003°48'3215.2
2017-Jun-19 13:25N 52°18' E 003°03'2215.3
2017-Jun-19 11:58N 52°30' E 002°34'714.9
2017-Jun-19 11:30N 52°34' E 002°24'814.7
2017-Jun-19 10:56N 52°39' E 002°13'614.4
2017-Jun-19 10:30N 52°43' E 002°05'714.1
2017-Jun-19 10:00N 52°46' E 001°55'713.7
2017-Jun-19 09:30N 52°50' E 001°45'713.3
2017-Jun-19 09:01N 52°53' E 001°35'713.2
2017-Jun-19 08:31N 52°56' E 001°25'713.2
2017-Jun-19 08:01N 52°59' E 001°16'7413.6
2017-Jun-19 02:36N 54°01' E 000°08'215.3
2017-Jun-19 02:31N 54°02' E 000°07'815.4
2017-Jun-19 02:00N 54°08' E 000°00'815.6
2017-Jun-19 01:30N 54°15' W 000°08'816.0
2017-Jun-19 01:00N 54°21' W 000°16'816.3
2017-Jun-19 00:30N 54°27' W 000°25'2216.0
2017-Jun-18 23:09N 54°38' W 000°57'216.1
2017-Jun-18 23:00N 54°39' W 001°01'4 0.5
2017-Jun-18 14:40N 54°40' W 001°08'2414.6
2017-Jun-18 13:00N 54°29' W 000°29'714.7
2017-Jun-18 12:30N 54°24' W 000°22'714.5
2017-Jun-18 12:00N 54°18' W 000°15'714.3
2017-Jun-18 11:30N 54°12' W 000°08'713.8
2017-Jun-18 11:00N 54°06' W 000°01'5013.9
2017-Jun-18 07:24N 53°21' E 000°38'2515.4
2017-Jun-18 05:47N 53°03' E 001°05'415.3
2017-Jun-18 05:31N 53°01' E 001°11'815.3
2017-Jun-18 05:01N 52°59' E 001°23'714.9
2017-Jun-18 04:30N 52°55' E 001°34'714.2
2017-Jun-18 04:00N 52°51' E 001°45'713.8
2017-Jun-18 03:29N 52°48' E 001°55'4813.9
2017-Jun-18 00:02N 52°21' E 003°01'114.7
2017-Jun-17 23:58N 52°21' E 003°02'714.8
2017-Jun-17 23:30N 52°17' E 003°11'815.0
2017-Jun-17 23:00N 52°12' E 003°22'714.9
2017-Jun-17 22:31N 52°09' E 003°32'714.7
2017-Jun-17 22:01N 52°05' E 003°43'714.5
2017-Jun-17 21:31N 52°03' E 003°54'714.6
2017-Jun-17 21:01N 51°59' E 004°04'713.7
2017-Jun-17 20:31N 51°56' E 004°13'611.4
2017-Jun-17 20:01N 51°52' E 004°20'5 9.0
2017-Jun-17 19:30N 51°50' E 004°27'5 9.8
2017-Jun-17 19:01N 51°49' E 004°34'5 9.4
2017-Jun-17 18:30N 51°45' E 004°38'4 7.5
2017-Jun-17 18:00N 51°41' E 004°36'0 0.0
2017-Jun-17 17:30N 51°41' E 004°36'0 0.0
2017-Jun-17 17:00N 51°41' E 004°36'0 0.0
2017-Jun-17 16:30N 51°41' E 004°36'0 0.0
2017-Jun-17 15:59N 51°41' E 004°36'0 0.0
2017-Jun-17 15:30N 51°41' E 004°36'0 0.0
2017-Jun-17 15:00N 51°41' E 004°36'0 0.0
2017-Jun-17 14:31N 51°41' E 004°36'0 0.0
2017-Jun-17 13:30N 51°41' E 004°36'0 0.0
2017-Jun-17 13:00N 51°41' E 004°36'0 0.1
2017-Jun-17 12:30N 51°41' E 004°36'0 0.1
2017-Jun-17 12:01N 51°41' E 004°36'0 0.0
2017-Jun-17 11:30N 51°41' E 004°36'0 0.0
2017-Jun-17 11:01N 51°41' E 004°36'0 0.0
2017-Jun-17 10:30N 51°41' E 004°36'0 0.0
2017-Jun-17 10:01N 51°41' E 004°36'0 0.0
2017-Jun-17 09:30N 51°41' E 004°36'0 0.9
2017-Jun-17 09:00N 51°41' E 004°36'4 7.7
2017-Jun-17 08:30N 51°45' E 004°38'4 8.7
2017-Jun-17 08:00N 51°49' E 004°34'5 9.5
2017-Jun-17 07:31N 51°50' E 004°27'510.5
2017-Jun-17 07:01N 51°53' E 004°20'510.7
2017-Jun-17 06:30N 51°56' E 004°13'815.4
2017-Jun-17 06:01N 51°60' E 004°02'815.9
2017-Jun-17 05:30N 52°01' E 003°49'7715.4
2017-Jun-17 00:30N 52°43' E 002°04'816.4
2017-Jun-17 00:01N 52°47' E 001°52'816.5
2017-Jun-16 23:31N 52°51' E 001°40'816.6
2017-Jun-16 23:00N 52°55' E 001°28'816.7
2017-Jun-16 22:31N 52°59' E 001°16'5515.1
2017-Jun-16 18:52N 53°34' E 000°05'513.8
2017-Jun-16 18:30N 53°36' W 000°03'510.4
2017-Jun-16 18:00N 53°38' W 000°11'0 0.3
2017-Jun-16 17:30N 53°38' W 000°12'0 0.0
2017-Jun-16 17:00N 53°38' W 000°12'0 0.0
2017-Jun-16 16:30N 53°38' W 000°12'0 0.0
2017-Jun-16 16:00N 53°38' W 000°12'0 0.0
2017-Jun-16 15:30N 53°38' W 000°12'0 0.0
2017-Jun-16 15:00N 53°38' W 000°12'0 0.0
2017-Jun-16 14:00N 53°38' W 000°12'0 0.0
2017-Jun-16 13:30N 53°38' W 000°12'0 0.0
2017-Jun-16 12:51N 53°38' W 000°12'0 0.0
2017-Jun-16 12:30N 53°38' W 000°12'0 0.0
2017-Jun-16 12:00N 53°38' W 000°12'0 0.0
2017-Jun-16 11:30N 53°38' W 000°12'0 0.0
2017-Jun-16 10:55N 53°38' W 000°12'0 0.0
2017-Jun-16 10:30N 53°38' W 000°12'0 0.3
2017-Jun-16 10:00N 53°38' W 000°11'1 1.2
2017-Jun-16 09:30N 53°38' W 000°11'611.9
2017-Jun-16 09:00N 53°36' W 000°02'5511.0
2017-Jun-16 04:00N 53°01' E 001°10'815.1
2017-Jun-16 03:30N 52°59' E 001°22'715.0
2017-Jun-16 03:00N 52°56' E 001°33'714.3
2017-Jun-16 02:30N 52°52' E 001°43'7514.9
2017-Jun-15 21:30N 52°11' E 003°27'1 2.9
2017-Jun-15 21:00N 52°10' E 003°28'714.5
2017-Jun-15 20:30N 52°06' E 003°38'713.8
2017-Jun-15 20:00N 52°04' E 003°49'713.5
2017-Jun-15 19:31N 52°02' E 003°59'713.6
2017-Jun-15 19:01N 51°58' E 004°08'612.5
2017-Jun-15 18:31N 51°54' E 004°16'5 9.7
2017-Jun-15 18:00N 51°51' E 004°22'5 9.9
2017-Jun-15 17:31N 51°50' E 004°30'4 8.6
2017-Jun-15 17:01N 51°48' E 004°36'510.1
2017-Jun-15 16:31N 51°43' E 004°37'3 5.3
2017-Jun-15 16:00N 51°41' E 004°36'0 0.0
2017-Jun-15 15:31N 51°41' E 004°36'0 0.0
2017-Jun-15 15:00N 51°41' E 004°36'0 0.0
2017-Jun-15 14:00N 51°41' E 004°36'0 0.0
2017-Jun-15 13:30N 51°41' E 004°36'0 0.0
2017-Jun-15 13:00N 51°41' E 004°36'0 0.0
2017-Jun-15 12:30N 51°41' E 004°36'0 0.0
2017-Jun-15 12:00N 51°41' E 004°36'0 0.0
2017-Jun-15 11:31N 51°41' E 004°36'0 0.0
2017-Jun-15 11:00N 51°41' E 004°36'0 0.0
2017-Jun-15 10:30N 51°41' E 004°36'0 0.0
2017-Jun-15 10:00N 51°41' E 004°36'0 0.0
2017-Jun-15 09:30N 51°41' E 004°36'0 0.0
2017-Jun-15 09:00N 51°41' E 004°36'0 0.0
2017-Jun-15 08:30N 51°41' E 004°36'0 0.0
2017-Jun-15 08:00N 51°41' E 004°36'0 0.0
2017-Jun-15 07:30N 51°41' E 004°36'0 0.0
2017-Jun-15 07:00N 51°41' E 004°36'0 0.0
2017-Jun-15 06:31N 51°41' E 004°36'1 2.4
2017-Jun-15 06:01N 51°42' E 004°36'5 9.0
2017-Jun-15 05:30N 51°47' E 004°38'4 8.9
2017-Jun-15 05:00N 51°50' E 004°33'611.1
2017-Jun-15 04:30N 51°51' E 004°24'5 9.1
2017-Jun-15 04:00N 51°54' E 004°19'612.9
2017-Jun-15 03:30N 51°57' E 004°10'713.9
2017-Jun-15 03:01N 51°60' E 003°59'714.3
2017-Jun-15 02:30N 52°01' E 003°48'713.8
2017-Jun-15 01:59N 52°05' E 003°38'713.9
2017-Jun-15 01:30N 52°08' E 003°28'814.0
2017-Jun-15 00:56N 52°12' E 003°17'713.6
2017-Jun-15 00:24N 52°16' E 003°08'3313.7
2017-Jun-14 22:02N 52°35' E 002°23'014.5
2017-Jun-14 22:00N 52°35' E 002°23'714.1
2017-Jun-14 21:30N 52°39' E 002°13'714.1
2017-Jun-14 21:00N 52°42' E 002°03'714.1
2017-Jun-14 20:30N 52°46' E 001°53'713.6
2017-Jun-14 20:00N 52°50' E 001°44'713.9
2017-Jun-14 19:30N 52°53' E 001°34'713.7
2017-Jun-14 19:00N 52°56' E 001°24'714.1
2017-Jun-14 18:30N 52°59' E 001°13'4913.1
2017-Jun-14 14:47N 53°33' E 000°13'1114.4
2017-Jun-14 14:00N 53°36' W 000°04'4 8.7
2017-Jun-14 13:30N 53°38' W 000°11'0 0.3
2017-Jun-14 13:00N 53°38' W 000°12'0 0.1
2017-Jun-14 11:13N 53°38' W 000°12'0 0.0
2017-Jun-14 10:40N 53°38' W 000°12'0 0.0
2017-Jun-14 10:16N 53°38' W 000°12'0 0.0
2017-Jun-14 09:55N 53°38' W 000°12'0 0.0
2017-Jun-14 09:19N 53°38' W 000°12'0 0.0
2017-Jun-14 08:22N 53°38' W 000°12'0 0.0
2017-Jun-14 07:58N 53°38' W 000°12'0 0.0
2017-Jun-14 07:28N 53°38' W 000°12'0 0.0
2017-Jun-14 06:58N 53°38' W 000°12'0 0.0
2017-Jun-14 06:22N 53°38' W 000°12'0 0.0
2017-Jun-14 06:00N 53°38' W 000°12'0 0.3
2017-Jun-14 05:30N 53°38' W 000°11'0 0.7
2017-Jun-14 05:00N 53°38' W 000°11'3 6.9
2017-Jun-14 04:30N 53°37' W 000°05'713.6
2017-Jun-14 03:59N 53°34' E 000°05'4912.0
2017-Jun-13 23:51N 53°02' E 001°08'412.9
2017-Jun-13 23:30N 53°01' E 001°15'612.4
2017-Jun-13 23:00N 52°58' E 001°24'611.9
2017-Jun-13 22:30N 52°55' E 001°33'611.9
2017-Jun-13 22:00N 52°52' E 001°42'612.0
2017-Jun-13 21:30N 52°49' E 001°50'1612.8
2017-Jun-13 20:17N 52°40' E 002°11'3314.4
2017-Jun-13 18:02N 52°23' E 002°56'214.5
2017-Jun-13 17:55N 52°22' E 002°58'614.3
2017-Jun-13 17:29N 52°18' E 003°07'714.2
2017-Jun-13 16:59N 52°15' E 003°17'714.0
2017-Jun-13 16:30N 52°11' E 003°27'713.8
2017-Jun-13 16:00N 52°08' E 003°36'713.2
2017-Jun-13 15:30N 52°06' E 003°46'713.6
2017-Jun-13 15:00N 52°03' E 003°56'1313.2
2017-Jun-13 14:00N 51°55' E 004°14'510.9
2017-Jun-13 13:30N 51°52' E 004°20'  
Track history (hours):
 
Tides and Currents Weather Stations Pressure Air Temp Water Temp Dewpoint Dewpoint Depression Visibility Wind Speed Wind Dir Waves Ship Positions

Vanquish

Last reported at 2017-Jun-23 13:30 UTC. Time now 2017-Jun-23 14:01 UTC.
Position N 53°38' W 000°12'.

MMSI: 246138952.

Date/timePositionNaut miles runAvg speedWind from/ knotsBaromVisibWave heightAir tempDewpointWater temp
2017-Jun-23 13:30N 53°38' W 000°12'0 0.0
2017-Jun-23 13:00N 53°38' W 000°12'0 0.0
2017-Jun-23 12:28N 53°38' W 000°12'0 0.0
2017-Jun-23 12:00N 53°38' W 000°12'0 0.0
2017-Jun-23 11:28N 53°38' W 000°12'0 0.4
2017-Jun-23 11:00N 53°38' W 000°11'0 0.4
2017-Jun-23 10:30N 53°38' W 000°11'0 0.3
2017-Jun-23 10:00N 53°38' W 000°11'1 2.6
2017-Jun-23 09:30N 53°38' W 000°09'59 8.3
2017-Jun-23 02:24N 53°02' E 001°09'512.6
2017-Jun-23 02:00N 53°00' E 001°17'713.7
2017-Jun-23 01:30N 52°58' E 001°27'815.7
2017-Jun-23 01:00N 52°54' E 001°39'815.7
2017-Jun-23 00:31N 52°49' E 001°49'7976.9
2017-Jun-22 23:29N 52°07' E 003°37'0 0.0
2017-Jun-22 23:00N 52°07' E 003°37'0 0.0
2017-Jun-22 22:30N 52°07' E 003°37'0 0.0
2017-Jun-22 22:00N 52°07' E 003°37'0 0.0
2017-Jun-22 21:30N 52°07' E 003°37'0 0.0
2017-Jun-22 21:00N 52°07' E 003°37'0 0.0
2017-Jun-22 20:30N 52°07' E 003°37'0 0.0
2017-Jun-22 20:00N 52°07' E 003°37'0 0.0
2017-Jun-22 19:30N 52°07' E 003°37'0 0.0
2017-Jun-22 19:00N 52°07' E 003°37'611.0
2017-Jun-22 18:30N 52°05' E 003°46'713.6
2017-Jun-22 18:00N 52°03' E 003°56'713.5
2017-Jun-22 17:30N 51°59' E 004°05'714.1
2017-Jun-22 17:00N 51°55' E 004°14'611.1
2017-Jun-22 16:30N 51°51' E 004°21'5 9.8
2017-Jun-22 16:00N 51°50' E 004°29'5 9.2
2017-Jun-22 15:31N 51°48' E 004°36'5 9.1
2017-Jun-22 15:01N 51°44' E 004°38'3 6.7
2017-Jun-22 14:30N 51°41' E 004°36'0 0.0
2017-Jun-22 13:26N 51°41' E 004°36'0 0.0
2017-Jun-22 13:00N 51°41' E 004°36'0 0.0
2017-Jun-22 12:30N 51°41' E 004°36'0 0.0
2017-Jun-22 12:00N 51°41' E 004°36'0 0.0
2017-Jun-22 11:30N 51°41' E 004°36'0 0.0
2017-Jun-22 11:00N 51°41' E 004°36'0 0.0
2017-Jun-22 10:29N 51°41' E 004°36'0 0.0
2017-Jun-22 10:00N 51°41' E 004°36'0 0.0
2017-Jun-22 09:30N 51°41' E 004°36'0 0.0
2017-Jun-22 09:00N 51°41' E 004°36'0 0.0
2017-Jun-22 08:30N 51°41' E 004°36'0 0.0
2017-Jun-22 08:00N 51°41' E 004°36'0 0.0
2017-Jun-22 07:30N 51°41' E 004°36'0 0.0
2017-Jun-22 07:01N 51°41' E 004°36'0 0.0
2017-Jun-22 06:30N 51°41' E 004°36'2 3.9
2017-Jun-22 06:00N 51°43' E 004°37'5 9.9
2017-Jun-22 05:30N 51°48' E 004°37'4 8.3
2017-Jun-22 05:00N 51°50' E 004°32'510.9
2017-Jun-22 04:31N 51°51' E 004°23'5 9.3
2017-Jun-22 04:01N 51°54' E 004°18'612.3
2017-Jun-22 03:31N 51°57' E 004°10'613.0
2017-Jun-22 03:01N 52°00' E 003°60'713.6
2017-Jun-22 02:30N 52°02' E 003°49'612.4
2017-Jun-22 02:00N 52°04' E 003°40'1017.8
2017-Jun-22 01:27N 52°09' E 003°26'2 4.8
2017-Jun-22 01:00N 52°10' E 003°23'612.2
2017-Jun-22 00:30N 52°13' E 003°15'712.4
2017-Jun-21 23:58N 52°17' E 003°06'1213.3
2017-Jun-21 23:06N 52°22' E 002°49'113.6
2017-Jun-21 23:00N 52°23' E 002°47'1213.1
2017-Jun-21 22:06N 52°31' E 002°33'513.5
2017-Jun-21 21:43N 52°34' E 002°26'313.6
2017-Jun-21 21:30N 52°35' E 002°22'713.6
2017-Jun-21 21:00N 52°39' E 002°12'713.7
2017-Jun-21 20:30N 52°43' E 002°03'714.6
2017-Jun-21 20:00N 52°47' E 001°53'815.3
2017-Jun-21 19:30N 52°50' E 001°42'815.4
2017-Jun-21 19:00N 52°54' E 001°30'815.5
2017-Jun-21 18:30N 52°58' E 001°19'6613.7
2017-Jun-21 13:42N 53°38' W 000°09'1 6.1
2017-Jun-21 13:30N 53°38' W 000°11'1 1.0
2017-Jun-21 12:50N 53°38' W 000°12'0 0.0
2017-Jun-21 12:27N 53°38' W 000°12'0 0.0
2017-Jun-21 10:53N 53°38' W 000°12'0 0.0
2017-Jun-21 10:30N 53°38' W 000°12'0 0.0
2017-Jun-21 09:57N 53°38' W 000°12'0 0.0
2017-Jun-21 09:30N 53°38' W 000°12'0 0.0
2017-Jun-21 08:54N 53°38' W 000°12'0 0.0
2017-Jun-21 08:27N 53°38' W 000°12'0 0.0
2017-Jun-21 07:57N 53°38' W 000°12'0 0.0
2017-Jun-21 07:22N 53°38' W 000°12'0 0.0
2017-Jun-21 07:00N 53°38' W 000°12'0 0.0
2017-Jun-21 06:29N 53°38' W 000°12'0 0.0
2017-Jun-21 06:00N 53°38' W 000°12'0 0.3
2017-Jun-21 05:30N 53°38' W 000°11'0 0.8
2017-Jun-21 05:00N 53°38' W 000°11'3 5.6
2017-Jun-21 04:30N 53°37' W 000°06'610.8
2017-Jun-21 03:55N 53°35' E 000°04'17 9.1
2017-Jun-21 02:04N 53°26' E 000°28'111.8
2017-Jun-21 02:00N 53°25' E 000°28'3313.9
2017-Jun-20 23:37N 53°02' E 001°08'216.1
2017-Jun-20 23:31N 53°01' E 001°11'816.4
2017-Jun-20 23:01N 52°59' E 001°23'816.8
2017-Jun-20 22:30N 52°55' E 001°36'916.9
2017-Jun-20 22:00N 52°50' E 001°48'816.3
2017-Jun-20 21:30N 52°46' E 001°59'915.7
2017-Jun-20 20:55N 52°41' E 002°12'814.8
2017-Jun-20 20:24N 52°37' E 002°22'614.4
2017-Jun-20 19:59N 52°33' E 002°31'714.2
2017-Jun-20 19:28N 52°29' E 002°41'714.1
2017-Jun-20 18:56N 52°25' E 002°51'714.0
2017-Jun-20 18:24N 52°21' E 003°01'614.2
2017-Jun-20 18:00N 52°18' E 003°09'1223.7
2017-Jun-20 17:30N 52°11' E 003°25'2 5.0
2017-Jun-20 17:00N 52°10' E 003°28'713.8
2017-Jun-20 16:30N 52°06' E 003°38'715.0
2017-Jun-20 16:00N 52°04' E 003°50'714.8
2017-Jun-20 15:30N 52°01' E 004°00'714.7
2017-Jun-20 15:00N 51°57' E 004°11'1211.8
2017-Jun-20 14:00N 51°50' E 004°26'5 9.9
2017-Jun-20 13:30N 51°49' E 004°34'4 7.4
2017-Jun-20 13:00N 51°46' E 004°38'4 8.4
2017-Jun-20 12:30N 51°42' E 004°36'1 2.0
2017-Jun-20 12:00N 51°41' E 004°36'0 0.0
2017-Jun-20 11:30N 51°41' E 004°36'0 0.0
2017-Jun-20 11:00N 51°41' E 004°36'0 0.0
2017-Jun-20 10:30N 51°41' E 004°36'0 0.0
2017-Jun-20 10:00N 51°41' E 004°36'0 0.0
2017-Jun-20 09:30N 51°41' E 004°36'0 0.0
2017-Jun-20 09:00N 51°41' E 004°36'0 0.0
2017-Jun-20 08:30N 51°41' E 004°36'0 0.0
2017-Jun-20 08:00N 51°41' E 004°36'0 0.0
2017-Jun-20 07:30N 51°41' E 004°36'0 0.0
2017-Jun-20 07:00N 51°41' E 004°36'0 0.0
2017-Jun-20 06:30N 51°41' E 004°36'0 0.0
2017-Jun-20 06:00N 51°41' E 004°36'0 0.0
2017-Jun-20 05:30N 51°41' E 004°36'0 0.0
2017-Jun-20 05:00N 51°41' E 004°36'0 0.0
2017-Jun-20 04:30N 51°41' E 004°36'0 0.0
2017-Jun-20 04:00N 51°41' E 004°36'0 0.0
2017-Jun-20 03:30N 51°41' E 004°36'0 0.0
2017-Jun-20 03:00N 51°41' E 004°36'0 0.0
2017-Jun-20 02:30N 51°41' E 004°36'0 0.0
2017-Jun-20 02:00N 51°41' E 004°36'0 0.0
2017-Jun-20 01:30N 51°41' E 004°36'0 0.0
2017-Jun-20 01:00N 51°41' E 004°36'0 0.0
2017-Jun-20 00:30N 51°41' E 004°36'0 0.0
2017-Jun-20 00:00N 51°41' E 004°36'0 0.0
2017-Jun-19 23:30N 51°41' E 004°36'0 0.0
2017-Jun-19 23:00N 51°41' E 004°36'0 0.0
2017-Jun-19 22:30N 51°41' E 004°36'0 0.0
2017-Jun-19 22:00N 51°41' E 004°36'0 0.0
2017-Jun-19 21:30N 51°41' E 004°36'0 0.2
2017-Jun-19 21:00N 51°41' E 004°36'0 0.0
2017-Jun-19 20:30N 51°41' E 004°36'0 0.0
2017-Jun-19 20:00N 51°41' E 004°36'0 0.0
2017-Jun-19 19:30N 51°41' E 004°36'3 5.1
2017-Jun-19 19:00N 51°43' E 004°37'5 9.9
2017-Jun-19 18:31N 51°48' E 004°37'5 9.3
2017-Jun-19 18:00N 51°50' E 004°30'510.6
2017-Jun-19 17:30N 51°51' E 004°22'4 8.6
2017-Jun-19 17:01N 51°54' E 004°17'612.2
2017-Jun-19 16:30N 51°58' E 004°09'713.7
2017-Jun-19 16:01N 52°00' E 003°59'713.3
2017-Jun-19 15:31N 52°01' E 003°48'3215.2
2017-Jun-19 13:25N 52°18' E 003°03'2215.3
2017-Jun-19 11:58N 52°30' E 002°34'714.9
2017-Jun-19 11:30N 52°34' E 002°24'814.7
2017-Jun-19 10:56N 52°39' E 002°13'614.4
2017-Jun-19 10:30N 52°43' E 002°05'714.1
2017-Jun-19 10:00N 52°46' E 001°55'713.7
2017-Jun-19 09:30N 52°50' E 001°45'713.3
2017-Jun-19 09:01N 52°53' E 001°35'713.2
2017-Jun-19 08:31N 52°56' E 001°25'713.2
2017-Jun-19 08:01N 52°59' E 001°16'7413.6
2017-Jun-19 02:36N 54°01' E 000°08'215.3
2017-Jun-19 02:31N 54°02' E 000°07'815.4
2017-Jun-19 02:00N 54°08' E 000°00'815.6
2017-Jun-19 01:30N 54°15' W 000°08'816.0
2017-Jun-19 01:00N 54°21' W 000°16'816.3
2017-Jun-19 00:30N 54°27' W 000°25'2216.0
2017-Jun-18 23:09N 54°38' W 000°57'216.1
2017-Jun-18 23:00N 54°39' W 001°01'4 0.5
2017-Jun-18 14:40N 54°40' W 001°08'2414.6
2017-Jun-18 13:00N 54°29' W 000°29'714.7
2017-Jun-18 12:30N 54°24' W 000°22'714.5
2017-Jun-18 12:00N 54°18' W 000°15'714.3
2017-Jun-18 11:30N 54°12' W 000°08'713.8
2017-Jun-18 11:00N 54°06' W 000°01'5013.9
2017-Jun-18 07:24N 53°21' E 000°38'2515.4
2017-Jun-18 05:47N 53°03' E 001°05'415.3
2017-Jun-18 05:31N 53°01' E 001°11'815.3
2017-Jun-18 05:01N 52°59' E 001°23'714.9
2017-Jun-18 04:30N 52°55' E 001°34'714.2
2017-Jun-18 04:00N 52°51' E 001°45'713.8
2017-Jun-18 03:29N 52°48' E 001°55'4813.9
2017-Jun-18 00:02N 52°21' E 003°01'114.7
2017-Jun-17 23:58N 52°21' E 003°02'714.8
2017-Jun-17 23:30N 52°17' E 003°11'815.0
2017-Jun-17 23:00N 52°12' E 003°22'714.9
2017-Jun-17 22:31N 52°09' E 003°32'714.7
2017-Jun-17 22:01N 52°05' E 003°43'714.5
2017-Jun-17 21:31N 52°03' E 003°54'714.6
2017-Jun-17 21:01N 51°59' E 004°04'713.7
2017-Jun-17 20:31N 51°56' E 004°13'611.4
2017-Jun-17 20:01N 51°52' E 004°20'5 9.0
2017-Jun-17 19:30N 51°50' E 004°27'5 9.8
2017-Jun-17 19:01N 51°49' E 004°34'5 9.4
2017-Jun-17 18:30N 51°45' E 004°38'4 7.5
2017-Jun-17 18:00N 51°41' E 004°36'0 0.0
2017-Jun-17 17:30N 51°41' E 004°36'0 0.0
2017-Jun-17 17:00N 51°41' E 004°36'0 0.0
2017-Jun-17 16:30N 51°41' E 004°36'0 0.0
2017-Jun-17 15:59N 51°41' E 004°36'0 0.0
2017-Jun-17 15:30N 51°41' E 004°36'0 0.0
2017-Jun-17 15:00N 51°41' E 004°36'0 0.0
2017-Jun-17 14:31N 51°41' E 004°36'0 0.0
2017-Jun-17 13:30N 51°41' E 004°36'0 0.0
2017-Jun-17 13:00N 51°41' E 004°36'0 0.1
2017-Jun-17 12:30N 51°41' E 004°36'0 0.1
2017-Jun-17 12:01N 51°41' E 004°36'0 0.0
2017-Jun-17 11:30N 51°41' E 004°36'0 0.0
2017-Jun-17 11:01N 51°41' E 004°36'0 0.0
2017-Jun-17 10:30N 51°41' E 004°36'0 0.0
2017-Jun-17 10:01N 51°41' E 004°36'0 0.0
2017-Jun-17 09:30N 51°41' E 004°36'0 0.9
2017-Jun-17 09:00N 51°41' E 004°36'4 7.7
2017-Jun-17 08:30N 51°45' E 004°38'4 8.7
2017-Jun-17 08:00N 51°49' E 004°34'5 9.5
2017-Jun-17 07:31N 51°50' E 004°27'510.5
2017-Jun-17 07:01N 51°53' E 004°20'510.7
2017-Jun-17 06:30N 51°56' E 004°13'815.4
2017-Jun-17 06:01N 51°60' E 004°02'815.9
2017-Jun-17 05:30N 52°01' E 003°49'7715.4
2017-Jun-17 00:30N 52°43' E 002°04'816.4
2017-Jun-17 00:01N 52°47' E 001°52'816.5
2017-Jun-16 23:31N 52°51' E 001°40'816.6
2017-Jun-16 23:00N 52°55' E 001°28'816.7
2017-Jun-16 22:31N 52°59' E 001°16'5515.1
2017-Jun-16 18:52N 53°34' E 000°05'513.8
2017-Jun-16 18:30N 53°36' W 000°03'510.4
2017-Jun-16 18:00N 53°38' W 000°11'0 0.3
2017-Jun-16 17:30N 53°38' W 000°12'0 0.0
2017-Jun-16 17:00N 53°38' W 000°12'0 0.0
2017-Jun-16 16:30N 53°38' W 000°12'0 0.0
2017-Jun-16 16:00N 53°38' W 000°12'0 0.0
2017-Jun-16 15:30N 53°38' W 000°12'0 0.0
2017-Jun-16 15:00N 53°38' W 000°12'0 0.0
2017-Jun-16 14:00N 53°38' W 000°12'0 0.0
2017-Jun-16 13:30N 53°38' W 000°12'0 0.0
2017-Jun-16 12:51N 53°38' W 000°12'0 0.0
2017-Jun-16 12:30N 53°38' W 000°12'0 0.0
2017-Jun-16 12:00N 53°38' W 000°12'0 0.0
2017-Jun-16 11:30N 53°38' W 000°12'0 0.0
2017-Jun-16 10:55N 53°38' W 000°12'0 0.0
2017-Jun-16 10:30N 53°38' W 000°12'0 0.3
2017-Jun-16 10:00N 53°38' W 000°11'1 1.2
2017-Jun-16 09:30N 53°38' W 000°11'611.9
2017-Jun-16 09:00N 53°36' W 000°02'5511.0
2017-Jun-16 04:00N 53°01' E 001°10'815.1
2017-Jun-16 03:30N 52°59' E 001°22'715.0
2017-Jun-16 03:00N 52°56' E 001°33'714.3
2017-Jun-16 02:30N 52°52' E 001°43'7514.9
2017-Jun-15 21:30N 52°11' E 003°27'1 2.9
2017-Jun-15 21:00N 52°10' E 003°28'714.5
2017-Jun-15 20:30N 52°06' E 003°38'713.8
2017-Jun-15 20:00N 52°04' E 003°49'713.5
2017-Jun-15 19:31N 52°02' E 003°59'713.6
2017-Jun-15 19:01N 51°58' E 004°08'612.5
2017-Jun-15 18:31N 51°54' E 004°16'5 9.7
2017-Jun-15 18:00N 51°51' E 004°22'5 9.9
2017-Jun-15 17:31N 51°50' E 004°30'4 8.6
2017-Jun-15 17:01N 51°48' E 004°36'510.1
2017-Jun-15 16:31N 51°43' E 004°37'3 5.3
2017-Jun-15 16:00N 51°41' E 004°36'0 0.0
2017-Jun-15 15:31N 51°41' E 004°36'0 0.0
2017-Jun-15 15:00N 51°41' E 004°36'0 0.0
2017-Jun-15 14:00N 51°41' E 004°36'0 0.0
2017-Jun-15 13:30N 51°41' E 004°36'0 0.0
2017-Jun-15 13:00N 51°41' E 004°36'0 0.0
2017-Jun-15 12:30N 51°41' E 004°36'0 0.0
2017-Jun-15 12:00N 51°41' E 004°36'0 0.0
2017-Jun-15 11:31N 51°41' E 004°36'0 0.0
2017-Jun-15 11:00N 51°41' E 004°36'0 0.0
2017-Jun-15 10:30N 51°41' E 004°36'0 0.0
2017-Jun-15 10:00N 51°41' E 004°36'0 0.0
2017-Jun-15 09:30N 51°41' E 004°36'0 0.0
2017-Jun-15 09:00N 51°41' E 004°36'0 0.0
2017-Jun-15 08:30N 51°41' E 004°36'0 0.0
2017-Jun-15 08:00N 51°41' E 004°36'0 0.0
2017-Jun-15 07:30N 51°41' E 004°36'0 0.0
2017-Jun-15 07:00N 51°41' E 004°36'0 0.0
2017-Jun-15 06:31N 51°41' E 004°36'1 2.4
2017-Jun-15 06:01N 51°42' E 004°36'5 9.0
2017-Jun-15 05:30N 51°47' E 004°38'4 8.9
2017-Jun-15 05:00N 51°50' E 004°33'611.1
2017-Jun-15 04:30N 51°51' E 004°24'5 9.1
2017-Jun-15 04:00N 51°54' E 004°19'612.9
2017-Jun-15 03:30N 51°57' E 004°10'713.9
2017-Jun-15 03:01N 51°60' E 003°59'714.3
2017-Jun-15 02:30N 52°01' E 003°48'713.8
2017-Jun-15 01:59N 52°05' E 003°38'713.9
2017-Jun-15 01:30N 52°08' E 003°28'814.0
2017-Jun-15 00:56N 52°12' E 003°17'713.6
2017-Jun-15 00:24N 52°16' E 003°08'3313.7
2017-Jun-14 22:02N 52°35' E 002°23'014.5
2017-Jun-14 22:00N 52°35' E 002°23'714.1
2017-Jun-14 21:30N 52°39' E 002°13'714.1
2017-Jun-14 21:00N 52°42' E 002°03'714.1
2017-Jun-14 20:30N 52°46' E 001°53'713.6
2017-Jun-14 20:00N 52°50' E 001°44'713.9
2017-Jun-14 19:30N 52°53' E 001°34'713.7
2017-Jun-14 19:00N 52°56' E 001°24'714.1
2017-Jun-14 18:30N 52°59' E 001°13'4913.1
2017-Jun-14 14:47N 53°33' E 000°13'1114.4
2017-Jun-14 14:00N 53°36' W 000°04'4 8.7
2017-Jun-14 13:30N 53°38' W 000°11'0 0.3
2017-Jun-14 13:00N 53°38' W 000°12'0 0.1
2017-Jun-14 11:13N 53°38' W 000°12'0 0.0
2017-Jun-14 10:40N 53°38' W 000°12'0 0.0
2017-Jun-14 10:16N 53°38' W 000°12'0 0.0
2017-Jun-14 09:55N 53°38' W 000°12'0 0.0
2017-Jun-14 09:19N 53°38' W 000°12'0 0.0
2017-Jun-14 08:22N 53°38' W 000°12'0 0.0
2017-Jun-14 07:58N 53°38' W 000°12'0 0.0
2017-Jun-14 07:28N 53°38' W 000°12'0 0.0
2017-Jun-14 06:58N 53°38' W 000°12'0 0.0
2017-Jun-14 06:22N 53°38' W 000°12'0 0.0
2017-Jun-14 06:00N 53°38' W 000°12'0 0.3
2017-Jun-14 05:30N 53°38' W 000°11'0 0.7
2017-Jun-14 05:00N 53°38' W 000°11'3 6.9
2017-Jun-14 04:30N 53°37' W 000°05'713.6
2017-Jun-14 03:59N 53°34' E 000°05'4912.0
2017-Jun-13 23:51N 53°02' E 001°08'412.9
2017-Jun-13 23:30N 53°01' E 001°15'612.4
2017-Jun-13 23:00N 52°58' E 001°24'611.9
2017-Jun-13 22:30N 52°55' E 001°33'611.9
2017-Jun-13 22:00N 52°52' E 001°42'612.0
2017-Jun-13 21:30N 52°49' E 001°50'1612.8
2017-Jun-13 20:17N 52°40' E 002°11'3314.4
2017-Jun-13 18:02N 52°23' E 002°56'214.5
2017-Jun-13 17:55N 52°22' E 002°58'614.3
2017-Jun-13 17:29N 52°18' E 003°07'714.2
2017-Jun-13 16:59N 52°15' E 003°17'714.0
2017-Jun-13 16:30N 52°11' E 003°27'713.8
2017-Jun-13 16:00N 52°08' E 003°36'713.2
2017-Jun-13 15:30N 52°06' E 003°46'713.6
2017-Jun-13 15:00N 52°03' E 003°56'1313.2
2017-Jun-13 14:00N 51°55' E 004°14'510.9
2017-Jun-13 13:30N 51°52' E 004°20'  

Dump ship's entire track history